createdAt,value
2024-04-18T00:00:54.779Z,94.86
2024-04-18T00:01:54.381Z,94.96
2024-04-18T00:02:54.359Z,95.07
2024-04-18T00:03:54.578Z,95.38
2024-04-18T00:04:54.433Z,95.48
2024-04-18T00:05:55.134Z,95.59
2024-04-18T00:06:54.347Z,95.59
2024-04-18T00:07:54.343Z,95.59
2024-04-18T00:08:54.276Z,95.38
2024-04-18T00:09:54.306Z,95.17
2024-04-18T00:10:54.286Z,94.96
2024-04-18T00:11:54.248Z,94.86
2024-04-18T00:12:54.226Z,94.65
2024-04-18T00:13:54.212Z,94.45
2024-04-18T00:14:54.183Z,94.34
2024-04-18T00:15:54.242Z,94.34
2024-04-18T00:16:54.160Z,94.45
2024-04-18T00:17:54.275Z,94.55
2024-04-18T00:18:54.209Z,94.65
2024-04-18T00:19:54.125Z,94.86
2024-04-18T00:20:54.165Z,94.86
2024-04-18T00:21:54.100Z,94.96
2024-04-18T00:22:54.087Z,94.96
2024-04-18T00:23:54.105Z,95.01
2024-04-18T00:24:54.098Z,95.11
2024-04-18T00:25:54.080Z,95.21
2024-04-18T00:26:54.014Z,95.32
2024-04-18T00:27:54.067Z,95.17
2024-04-18T00:28:54.009Z,95.01
2024-04-18T00:29:53.998Z,94.90
2024-04-18T00:30:54.016Z,95.01
2024-04-18T00:31:53.969Z,95.11
2024-04-18T00:32:53.968Z,95.11
2024-04-18T00:33:53.970Z,95.42
2024-04-18T00:34:53.931Z,95.63
2024-04-18T00:35:53.980Z,95.94
2024-04-18T00:36:53.894Z,96.25
2024-04-18T00:37:53.885Z,96.51
2024-04-18T00:38:53.885Z,96.82
2024-04-18T00:39:54.010Z,96.92
2024-04-18T00:40:53.860Z,96.92
2024-04-18T00:41:53.863Z,97.03
2024-04-18T00:42:53.831Z,97.03
2024-04-18T00:43:53.805Z,96.92
2024-04-18T00:44:53.776Z,97.03
2024-04-18T00:45:53.878Z,96.98
2024-04-18T00:46:53.772Z,97.09
2024-04-18T00:47:53.932Z,97.19
2024-04-18T00:48:53.945Z,97.19
2024-04-18T00:49:53.734Z,97.30
2024-04-18T00:50:53.749Z,97.40
2024-04-18T00:51:54.621Z,97.40
2024-04-18T00:52:53.686Z,97.30
2024-04-18T00:53:53.696Z,97.25
2024-04-18T00:54:53.660Z,97.14
2024-04-18T00:55:53.651Z,97.14
2024-04-18T00:56:53.631Z,97.04
2024-04-18T00:57:53.646Z,96.94
2024-04-18T00:58:53.602Z,96.94
2024-04-18T00:59:53.619Z,96.83
2024-04-18T01:00:53.753Z,96.83
2024-04-18T01:01:53.594Z,96.83
2024-04-18T01:02:53.615Z,96.73
2024-04-18T01:03:53.636Z,96.83
2024-04-18T01:04:53.560Z,96.83
2024-04-18T01:05:53.524Z,96.73
2024-04-18T01:06:53.506Z,96.73
2024-04-18T01:07:53.504Z,96.52
2024-04-18T01:08:53.549Z,96.42
2024-04-18T01:09:53.539Z,96.11
2024-04-18T01:10:53.448Z,95.90
2024-04-18T01:11:53.509Z,95.90
2024-04-18T01:12:53.479Z,95.69
2024-04-18T01:13:53.420Z,95.69
2024-04-18T01:14:53.478Z,95.79
2024-04-18T01:15:53.399Z,95.79
2024-04-18T01:16:53.363Z,95.90
2024-04-18T01:17:53.506Z,95.79
2024-04-18T01:18:53.348Z,95.59
2024-04-18T01:19:53.410Z,95.38
2024-04-18T01:20:53.311Z,95.38
2024-04-18T01:21:53.416Z,95.38
2024-04-18T01:22:53.303Z,95.48
2024-04-18T01:23:53.261Z,95.59
2024-04-18T01:24:53.276Z,95.69
2024-04-18T01:25:53.244Z,95.79
2024-04-18T01:26:53.250Z,95.69
2024-04-18T01:27:53.226Z,95.69
2024-04-18T01:28:53.222Z,95.79
2024-04-18T01:29:53.216Z,96.00
2024-04-18T01:30:53.235Z,96.06
2024-04-18T01:31:53.208Z,96.27
2024-04-18T01:32:53.261Z,96.06
2024-04-18T01:33:53.238Z,95.96
2024-04-18T01:34:53.121Z,95.75
2024-04-18T01:35:53.111Z,95.54
2024-04-18T01:36:53.299Z,95.44
2024-04-18T01:37:53.107Z,95.44
2024-04-18T01:38:53.130Z,95.44
2024-04-18T01:39:53.104Z,95.54
2024-04-18T01:40:53.045Z,95.44
2024-04-18T01:41:53.051Z,95.13
2024-04-18T01:42:53.125Z,95.03
2024-04-18T01:43:53.007Z,94.92
2024-04-18T01:44:52.991Z,95.03
2024-04-18T01:45:53.029Z,95.03
2024-04-18T01:46:52.956Z,95.23
2024-04-18T01:47:53.198Z,95.44
2024-04-18T01:48:53.010Z,95.54
2024-04-18T01:49:52.918Z,95.65
2024-04-18T01:50:52.906Z,95.44
2024-04-18T01:51:52.965Z,95.34
2024-04-18T01:52:52.884Z,95.44
2024-04-18T01:53:52.921Z,95.54
2024-04-18T01:54:52.848Z,95.65
2024-04-18T01:55:52.831Z,95.65
2024-04-18T01:56:52.923Z,95.79
2024-04-18T01:57:52.851Z,95.86
2024-04-18T01:58:52.836Z,95.86
2024-04-18T01:59:52.798Z,95.75
2024-04-18T02:00:52.887Z,95.59
2024-04-18T02:01:52.814Z,95.38
2024-04-18T02:02:52.794Z,95.38
2024-04-18T02:03:52.938Z,95.38
2024-04-18T02:04:52.799Z,95.38
2024-04-18T02:05:52.702Z,95.48
2024-04-18T02:06:52.717Z,95.38
2024-04-18T02:07:52.773Z,95.59
2024-04-18T02:08:52.670Z,95.79
2024-04-18T02:09:52.689Z,96.00
2024-04-18T02:10:52.703Z,96.11
2024-04-18T02:11:52.653Z,96.31
2024-04-18T02:12:52.609Z,96.42
2024-04-18T02:13:52.669Z,96.52
2024-04-18T02:14:52.597Z,96.42
2024-04-18T02:15:52.592Z,96.21
2024-04-18T02:16:52.560Z,96.11
2024-04-18T02:17:52.674Z,96.04
2024-04-18T02:18:52.580Z,96.15
2024-04-18T02:19:52.508Z,96.25
2024-04-18T02:20:52.503Z,96.36
2024-04-18T02:21:52.488Z,96.36
2024-04-18T02:22:52.479Z,96.36
2024-04-18T02:23:52.515Z,96.47
2024-04-18T02:24:52.480Z,96.36
2024-04-18T02:25:52.434Z,96.25
2024-04-18T02:26:52.429Z,96.25
2024-04-18T02:27:52.433Z,96.25
2024-04-18T02:28:52.392Z,96.25
2024-04-18T02:29:52.422Z,96.21
2024-04-18T02:30:52.398Z,96.31
2024-04-18T02:31:52.547Z,96.31
2024-04-18T02:32:52.389Z,96.31
2024-04-18T02:33:52.446Z,96.31
2024-04-18T02:34:52.317Z,96.21
2024-04-18T02:35:52.308Z,96.11
2024-04-18T02:36:52.356Z,95.90
2024-04-18T02:37:52.292Z,95.79
2024-04-18T02:38:52.297Z,95.79
2024-04-18T02:39:52.458Z,95.59
2024-04-18T02:40:52.247Z,95.59
2024-04-18T02:41:52.220Z,95.59
2024-04-18T02:42:52.232Z,95.48
2024-04-18T02:43:52.324Z,95.48
2024-04-18T02:44:52.194Z,95.48
2024-04-18T02:45:52.356Z,95.48
2024-04-18T02:46:52.159Z,95.48
2024-04-18T02:47:52.263Z,95.38
2024-04-18T02:48:52.199Z,95.28
2024-04-18T02:49:52.216Z,95.07
2024-04-18T02:50:52.107Z,94.96
2024-04-18T02:51:52.130Z,94.96
2024-04-18T02:52:52.103Z,94.96
2024-04-18T02:53:52.085Z,94.86
2024-04-18T02:54:52.114Z,94.86
2024-04-18T02:55:52.076Z,94.86
2024-04-18T02:56:52.058Z,94.76
2024-04-18T02:57:52.040Z,94.55
2024-04-18T02:58:51.994Z,94.55
2024-04-18T02:59:52.011Z,94.65
2024-04-18T03:00:52.121Z,94.65
2024-04-18T03:01:51.959Z,94.55
2024-04-18T03:02:51.986Z,94.55
2024-04-18T03:03:51.996Z,94.55
2024-04-18T03:04:51.909Z,94.55
2024-04-18T03:05:51.902Z,94.55
2024-04-18T03:06:52.042Z,94.86
2024-04-18T03:07:51.874Z,94.86
2024-04-18T03:08:51.870Z,95.07
2024-04-18T03:09:51.926Z,95.32
2024-04-18T03:10:51.884Z,95.42
2024-04-18T03:11:51.815Z,95.63
2024-04-18T03:12:51.859Z,95.73
2024-04-18T03:13:51.838Z,95.84
2024-04-18T03:14:51.793Z,95.94
2024-04-18T03:15:51.847Z,96.04
2024-04-18T03:16:51.818Z,96.04
2024-04-18T03:17:51.825Z,95.94
2024-04-18T03:18:51.838Z,95.73
2024-04-18T03:19:51.800Z,95.53
2024-04-18T03:20:51.806Z,95.42
2024-04-18T03:21:51.737Z,95.42
2024-04-18T03:22:51.688Z,95.42
2024-04-18T03:23:51.668Z,95.63
2024-04-18T03:24:51.753Z,95.63
2024-04-18T03:25:51.639Z,95.73
2024-04-18T03:26:51.735Z,95.63
2024-04-18T03:27:51.651Z,95.63
2024-04-18T03:28:51.601Z,95.53
2024-04-18T03:29:51.637Z,95.42
2024-04-18T03:30:51.629Z,95.42
2024-04-18T03:31:51.606Z,95.63
2024-04-18T03:32:51.712Z,95.73
2024-04-18T03:33:51.617Z,95.53
2024-04-18T03:34:51.608Z,95.42
2024-04-18T03:35:51.499Z,95.21
2024-04-18T03:36:51.616Z,95.21
2024-04-18T03:37:51.491Z,95.21
2024-04-18T03:38:51.479Z,95.11
2024-04-18T03:39:51.533Z,95.11
2024-04-18T03:40:51.430Z,95.21
2024-04-18T03:41:51.446Z,95.21
2024-04-18T03:42:51.480Z,95.11
2024-04-18T03:43:51.412Z,95.01
2024-04-18T03:44:51.427Z,94.90
2024-04-18T03:45:51.390Z,94.90
2024-04-18T03:46:51.364Z,94.80
2024-04-18T03:47:51.451Z,94.80
2024-04-18T03:48:51.354Z,94.90
2024-04-18T03:49:51.397Z,95.11
2024-04-18T03:50:51.408Z,95.21
2024-04-18T03:51:51.354Z,95.11
2024-04-18T03:52:51.299Z,95.01
2024-04-18T03:53:51.293Z,95.11
2024-04-18T03:55:00.964Z,95.42
2024-04-18T03:55:51.245Z,95.42
2024-04-18T03:56:51.243Z,95.42
2024-04-18T03:57:51.254Z,95.42
2024-04-18T03:58:51.190Z,95.42
2024-04-18T03:59:51.232Z,95.42
2024-04-18T04:00:51.319Z,95.42
2024-04-18T04:01:51.205Z,95.53
2024-04-18T04:02:51.163Z,95.63
2024-04-18T04:03:51.263Z,95.63
2024-04-18T04:04:51.143Z,95.63
2024-04-18T04:05:51.143Z,95.53
2024-04-18T04:06:51.132Z,95.32
2024-04-18T04:07:51.091Z,95.32
2024-04-18T04:08:51.107Z,95.42
2024-04-18T04:09:51.126Z,95.53
2024-04-18T04:10:51.169Z,95.42
2024-04-18T04:11:51.071Z,95.38
2024-04-18T04:12:51.118Z,95.48
2024-04-18T04:13:50.999Z,95.42
2024-04-18T04:14:50.980Z,95.28
2024-04-18T04:15:51.321Z,95.17
2024-04-18T04:16:50.980Z,95.07
2024-04-18T04:17:51.067Z,94.86
2024-04-18T04:18:50.970Z,94.76
2024-04-18T04:19:50.901Z,94.90
2024-04-18T04:20:50.895Z,94.90
2024-04-18T04:21:51.110Z,94.90
2024-04-18T04:22:50.876Z,95.01
2024-04-18T04:23:50.872Z,95.11
2024-04-18T04:24:50.943Z,95.11
2024-04-18T04:25:50.861Z,95.01
2024-04-18T04:26:50.818Z,94.80
2024-04-18T04:27:50.846Z,94.80
2024-04-18T04:28:50.814Z,94.80
2024-04-18T04:29:50.852Z,94.80
2024-04-18T04:30:50.956Z,95.01
2024-04-18T04:31:50.827Z,95.01
2024-04-18T04:32:50.929Z,94.90
2024-04-18T04:33:50.818Z,95.01
2024-04-18T04:34:50.719Z,95.07
2024-04-18T04:35:50.701Z,95.07
2024-04-18T04:36:50.777Z,95.07
2024-04-18T04:37:50.699Z,95.07
2024-04-18T04:38:50.714Z,95.07
2024-04-18T04:39:50.774Z,95.07
2024-04-18T04:40:50.643Z,95.17
2024-04-18T04:41:50.660Z,95.28
2024-04-18T04:42:50.693Z,95.38
2024-04-18T04:43:50.583Z,95.38
2024-04-18T04:44:50.579Z,95.48
2024-04-18T04:45:50.655Z,95.38
2024-04-18T04:46:50.600Z,95.38
2024-04-18T04:47:50.721Z,95.59
2024-04-18T04:48:50.669Z,95.69
2024-04-18T04:49:50.508Z,95.59
2024-04-18T04:50:50.508Z,95.48
2024-04-18T04:51:50.492Z,95.48
2024-04-18T04:52:50.582Z,95.59
2024-04-18T04:53:53.911Z,95.69
2024-04-18T04:54:50.637Z,95.90
2024-04-18T04:55:50.451Z,96.11
2024-04-18T04:56:50.420Z,96.27
2024-04-18T04:57:50.453Z,96.27
2024-04-18T04:58:50.413Z,96.21
2024-04-18T04:59:50.390Z,95.59
2024-04-18T05:00:50.457Z,95.17
2024-04-18T05:01:50.357Z,94.65
2024-04-18T05:02:50.424Z,94.65
2024-04-18T05:03:50.484Z,94.55
2024-04-18T05:04:50.369Z,94.55
2024-04-18T05:05:50.351Z,94.86
2024-04-18T05:06:50.393Z,94.55
2024-04-18T05:07:53.854Z,94.45
2024-04-18T05:08:50.281Z,94.34
2024-04-18T05:09:50.401Z,94.13
2024-04-18T05:10:50.264Z,94.03
2024-04-18T05:11:50.237Z,93.66
2024-04-18T05:12:50.495Z,93.35
2024-04-18T05:13:50.189Z,93.35
2024-04-18T05:14:50.172Z,93.55
2024-04-18T05:15:50.260Z,93.87
2024-04-18T05:16:50.290Z,93.87
2024-04-18T05:17:50.165Z,93.87
2024-04-18T05:18:50.228Z,94.07
2024-04-18T05:19:50.115Z,94.07
2024-04-18T05:20:50.125Z,94.18
2024-04-18T05:21:50.197Z,94.34
2024-04-18T05:22:50.066Z,94.55
2024-04-18T05:23:50.055Z,94.55
2024-04-18T05:24:50.182Z,94.59
2024-04-18T05:25:50.040Z,94.55
2024-04-18T05:26:50.308Z,94.38
2024-04-18T05:27:50.067Z,94.18
2024-04-18T05:28:50.082Z,93.97
2024-04-18T05:29:49.994Z,93.87
2024-04-18T05:30:50.110Z,93.76
2024-04-18T05:31:49.954Z,93.76
2024-04-18T05:32:50.012Z,93.87
2024-04-18T05:33:49.947Z,93.87
2024-04-18T05:34:49.903Z,93.97
2024-04-18T05:35:49.898Z,94.18
2024-04-18T05:36:49.927Z,94.18
2024-04-18T05:37:49.912Z,94.18
2024-04-18T05:38:49.860Z,94.18
2024-04-18T05:39:49.927Z,94.28
2024-04-18T05:40:49.836Z,94.28
2024-04-18T05:41:49.806Z,94.18
2024-04-18T05:42:49.884Z,94.18
2024-04-18T05:43:49.822Z,94.18
2024-04-18T05:44:49.775Z,94.18
2024-04-18T05:45:50.915Z,94.07
2024-04-18T05:46:49.831Z,93.87
2024-04-18T05:47:49.739Z,93.66
2024-04-18T05:48:49.756Z,93.49
2024-04-18T05:49:49.778Z,93.39
2024-04-18T05:50:49.712Z,93.39
2024-04-18T05:51:49.752Z,93.60
2024-04-18T05:52:49.673Z,93.70
2024-04-18T05:53:49.652Z,93.70
2024-04-18T05:54:49.741Z,93.49
2024-04-18T05:55:49.690Z,93.39
2024-04-18T05:56:49.623Z,93.33
2024-04-18T05:57:49.682Z,93.33
2024-04-18T05:58:49.606Z,93.43
2024-04-18T05:59:49.580Z,93.33
2024-04-18T06:00:49.588Z,92.91
2024-04-18T06:01:49.611Z,92.70
2024-04-18T06:02:49.566Z,92.70
2024-04-18T06:03:49.562Z,93.01
2024-04-18T06:04:49.552Z,93.43
2024-04-18T06:05:49.516Z,93.54
2024-04-18T06:06:49.570Z,93.54
2024-04-18T06:07:49.572Z,93.33
2024-04-18T06:08:49.449Z,93.23
2024-04-18T06:09:49.505Z,93.12
2024-04-18T06:10:49.430Z,93.12
2024-04-18T06:11:49.462Z,93.12
2024-04-18T06:12:49.498Z,93.12
2024-04-18T06:13:49.392Z,92.91
2024-04-18T06:14:49.414Z,92.70
2024-04-18T06:15:49.841Z,92.80
2024-04-18T06:16:49.373Z,92.91
2024-04-18T06:17:49.465Z,93.01
2024-04-18T06:18:49.348Z,92.91
2024-04-18T06:19:49.307Z,92.80
2024-04-18T06:20:49.316Z,92.70
2024-04-18T06:21:49.344Z,92.70
2024-04-18T06:22:49.353Z,92.91
2024-04-18T06:23:49.258Z,92.91
2024-04-18T06:24:49.342Z,93.01
2024-04-18T06:25:49.234Z,93.18
2024-04-18T06:26:49.223Z,93.33
2024-04-18T06:27:49.251Z,93.60
2024-04-18T06:28:49.245Z,93.60
2024-04-18T06:29:49.176Z,93.29
2024-04-18T06:30:49.194Z,93.18
2024-04-18T06:31:49.140Z,93.07
2024-04-18T06:32:49.246Z,93.29
2024-04-18T06:33:49.317Z,93.39
2024-04-18T06:34:49.129Z,93.49
2024-04-18T06:35:49.100Z,93.91
2024-04-18T06:36:49.115Z,94.64
2024-04-18T06:37:49.081Z,94.64
2024-04-18T06:38:49.065Z,94.22
2024-04-18T06:39:49.168Z,93.70
2024-04-18T06:40:49.085Z,93.39
2024-04-18T06:41:49.012Z,93.29
2024-04-18T06:42:49.049Z,93.29
2024-04-18T06:43:48.986Z,93.18
2024-04-18T06:44:48.973Z,93.18
2024-04-18T06:45:48.973Z,93.45
2024-04-18T06:46:56.751Z,93.97
2024-04-18T06:47:48.998Z,94.18
2024-04-18T06:48:49.028Z,94.28
2024-04-18T06:49:48.911Z,94.59
2024-04-18T06:50:48.909Z,94.76
2024-04-18T06:51:48.965Z,94.34
2024-04-18T06:52:48.861Z,94.03
2024-04-18T06:53:48.876Z,93.82
2024-04-18T06:54:48.903Z,93.62
2024-04-18T06:55:48.826Z,93.30
2024-04-18T06:56:48.827Z,93.20
2024-04-18T06:57:48.843Z,93.47
2024-04-18T06:58:48.778Z,93.26
2024-04-18T06:59:48.775Z,93.47
2024-04-18T07:00:49.020Z,93.78
2024-04-18T07:01:48.750Z,94.09
2024-04-18T07:02:48.756Z,94.05
2024-04-18T07:03:48.863Z,93.74
2024-04-18T07:04:48.868Z,93.53
2024-04-18T07:05:48.817Z,93.43
2024-04-18T07:06:48.753Z,93.32
2024-04-18T07:07:48.661Z,92.59
2024-04-18T07:08:48.737Z,92.49
2024-04-18T07:09:49.944Z,92.28
2024-04-18T07:10:48.608Z,91.76
2024-04-18T07:11:48.670Z,91.35
2024-04-18T07:12:48.654Z,91.45
2024-04-18T07:13:48.588Z,91.66
2024-04-18T07:14:48.620Z,91.76
2024-04-18T07:15:48.616Z,91.66
2024-04-18T07:16:48.559Z,92.18
2024-04-18T07:17:48.689Z,93.32
2024-04-18T07:18:48.626Z,93.80
2024-04-18T07:19:48.499Z,93.38
2024-04-18T07:20:48.625Z,93.18
2024-04-18T07:21:48.563Z,92.97
2024-04-18T07:22:48.452Z,93.18
2024-04-18T07:23:48.470Z,93.54
2024-04-18T07:24:48.467Z,93.23
2024-04-18T07:25:48.472Z,92.82
2024-04-18T07:26:48.428Z,92.20
2024-04-18T07:27:48.438Z,92.51
2024-04-18T07:28:48.409Z,92.82
2024-04-18T07:29:48.379Z,93.13
2024-04-18T07:30:48.423Z,92.20
2024-04-18T07:31:48.439Z,91.99
2024-04-18T07:32:48.527Z,91.64
2024-04-18T07:33:48.368Z,90.33
2024-04-18T07:34:48.308Z,90.02
2024-04-18T07:35:48.303Z,90.54
2024-04-18T07:36:48.466Z,91.37
2024-04-18T07:37:48.299Z,92.16
2024-04-18T07:38:48.245Z,90.85
2024-04-18T07:39:48.292Z,89.61
2024-04-18T07:40:48.272Z,89.50
2024-04-18T07:41:48.306Z,89.92
2024-04-18T07:42:48.287Z,90.44
2024-04-18T07:43:48.186Z,91.37
2024-04-18T07:44:48.163Z,90.12
2024-04-18T07:45:48.230Z,88.78
2024-04-18T07:46:48.162Z,89.04
2024-04-18T07:47:48.236Z,89.56
2024-04-18T07:48:48.183Z,90.29
2024-04-18T07:49:49.529Z,90.91
2024-04-18T07:50:48.096Z,91.43
2024-04-18T07:51:48.476Z,92.32
2024-04-18T07:52:56.589Z,92.22
2024-04-18T07:53:48.061Z,92.32
2024-04-18T07:54:48.094Z,92.22
2024-04-18T07:55:48.054Z,92.22
2024-04-18T07:56:48.309Z,92.32
2024-04-18T07:57:48.810Z,92.22
2024-04-18T07:58:48.637Z,92.38
2024-04-18T07:59:48.860Z,92.49
2024-04-18T08:00:49.238Z,93.00
2024-04-18T08:01:49.333Z,93.21
2024-04-18T08:02:49.522Z,92.90
2024-04-18T08:03:56.262Z,93.10
2024-04-18T08:04:55.409Z,92.96
2024-04-18T08:05:50.239Z,93.06
2024-04-18T08:06:50.939Z,93.06
2024-04-18T08:07:51.252Z,93.16
2024-04-18T08:08:51.413Z,92.44
2024-04-18T08:09:51.050Z,92.55
2024-04-18T08:11:08.046Z,92.24
2024-04-18T08:12:51.244Z,92.24
2024-04-18T08:13:52.392Z,91.72
2024-04-18T08:14:51.020Z,91.51
2024-04-18T08:16:47.814Z,90.89
2024-04-18T08:17:47.804Z,90.99
2024-04-18T08:18:47.772Z,90.72
2024-04-18T08:19:47.760Z,90.83
2024-04-18T08:20:47.679Z,90.72
2024-04-18T08:21:47.679Z,90.58
2024-04-18T08:22:47.664Z,90.72
2024-04-18T08:23:47.665Z,91.03
2024-04-18T08:24:47.643Z,90.93
2024-04-18T08:25:48.151Z,90.83
2024-04-18T08:26:47.637Z,90.72
2024-04-18T08:27:47.602Z,90.31
2024-04-18T08:28:47.728Z,90.62
2024-04-18T08:29:47.574Z,90.93
2024-04-18T08:30:47.649Z,91.24
2024-04-18T08:31:47.560Z,91.14
2024-04-18T08:32:47.549Z,90.62
2024-04-18T08:33:54.371Z,90.52
2024-04-18T08:34:48.698Z,90.31
2024-04-18T08:35:47.529Z,90.62
2024-04-18T08:36:47.474Z,91.14
2024-04-18T08:37:47.459Z,91.24
2024-04-18T08:38:47.445Z,91.45
2024-04-18T08:39:47.445Z,91.45
2024-04-18T08:40:47.476Z,91.35
2024-04-18T08:41:47.638Z,91.03
2024-04-18T08:42:47.386Z,91.03
2024-04-18T08:43:52.087Z,91.14
2024-04-18T08:44:47.404Z,90.93
2024-04-18T08:45:47.347Z,90.83
2024-04-18T08:46:47.394Z,90.72
2024-04-18T08:47:47.418Z,90.83
2024-04-18T08:48:47.429Z,90.93
2024-04-18T08:49:47.333Z,91.24
2024-04-18T08:50:47.345Z,91.14
2024-04-18T08:51:47.327Z,90.93
2024-04-18T08:52:47.295Z,90.83
2024-04-18T08:53:47.264Z,91.09
2024-04-18T08:54:47.245Z,90.68
2024-04-18T08:55:47.271Z,90.58
2024-04-18T08:56:47.217Z,90.58
2024-04-18T08:57:47.190Z,90.89
2024-04-18T08:58:47.170Z,91.30
2024-04-18T08:59:47.161Z,91.72
2024-04-18T09:00:47.218Z,91.93
2024-04-18T09:01:47.208Z,91.57
2024-04-18T09:02:47.146Z,91.26
2024-04-18T09:03:47.118Z,90.02
2024-04-18T09:04:47.124Z,90.33
2024-04-18T09:05:47.097Z,90.53
2024-04-18T09:06:47.059Z,90.53
2024-04-18T09:07:47.075Z,90.23
2024-04-18T09:08:47.033Z,91.26
2024-04-18T09:09:47.053Z,91.36
2024-04-18T09:10:47.134Z,91.84
2024-04-18T09:11:47.133Z,91.63
2024-04-18T09:12:46.993Z,91.32
2024-04-18T09:13:46.994Z,91.22
2024-04-18T09:14:46.961Z,90.45
2024-04-18T09:15:46.960Z,90.25
2024-04-18T09:16:46.996Z,90.14
2024-04-18T09:17:47.061Z,89.94
2024-04-18T09:18:47.011Z,89.83
2024-04-18T09:19:46.891Z,90.77
2024-04-18T09:20:46.874Z,90.97
2024-04-18T09:21:46.876Z,91.44
2024-04-18T09:22:46.901Z,91.96
2024-04-18T09:23:46.843Z,92.17
2024-04-18T09:24:46.822Z,91.65
2024-04-18T09:25:47.692Z,91.34
2024-04-18T09:26:46.818Z,89.89
2024-04-18T09:27:46.800Z,88.45
2024-04-18T09:28:46.961Z,87.41
2024-04-18T09:29:46.760Z,87.62
2024-04-18T09:30:46.798Z,87.97
2024-04-18T09:31:46.761Z,88.59
2024-04-18T09:32:46.800Z,89.11
2024-04-18T09:33:46.853Z,89.62
2024-04-18T09:34:47.243Z,90.35
2024-04-18T09:35:46.684Z,90.04
2024-04-18T09:36:46.710Z,89.32
2024-04-18T09:37:53.152Z,89.25
2024-04-18T09:38:46.689Z,89.46
2024-04-18T09:39:46.764Z,89.15
2024-04-18T09:40:46.660Z,89.71
2024-04-18T09:41:46.589Z,90.33
2024-04-18T09:42:46.631Z,90.95
2024-04-18T09:43:46.584Z,90.84
2024-04-18T09:44:46.549Z,90.53
2024-04-18T09:45:46.582Z,90.44
2024-04-18T09:46:46.545Z,89.92
2024-04-18T09:47:46.610Z,90.53
2024-04-18T09:48:46.648Z,90.23
2024-04-18T09:49:46.520Z,88.78
2024-04-18T09:50:46.483Z,88.98
2024-04-18T09:51:46.560Z,89.71
2024-04-18T09:52:46.454Z,89.98
2024-04-18T09:53:46.500Z,89.98
2024-04-18T09:54:46.411Z,89.98
2024-04-18T09:55:46.410Z,89.98
2024-04-18T09:56:46.519Z,90.08
2024-04-18T09:57:46.391Z,89.15
2024-04-18T09:58:46.360Z,88.53
2024-04-18T09:59:46.360Z,88.74
2024-04-18T10:00:46.360Z,89.04
2024-04-18T10:01:46.418Z,89.36
2024-04-18T10:02:46.332Z,89.25
2024-04-18T10:03:46.525Z,88.94
2024-04-18T10:04:46.322Z,89.83
2024-04-18T10:05:46.279Z,88.80
2024-04-18T10:06:46.323Z,88.59
2024-04-18T10:07:46.240Z,89.01
2024-04-18T10:08:46.298Z,89.52
2024-04-18T10:09:46.243Z,89.62
2024-04-18T10:10:46.274Z,89.94
2024-04-18T10:11:46.271Z,89.28
2024-04-18T10:12:46.184Z,88.86
2024-04-18T10:13:46.201Z,89.69
2024-04-18T10:14:46.223Z,89.48
2024-04-18T10:15:46.191Z,89.54
2024-04-18T10:16:46.138Z,89.44
2024-04-18T10:17:46.144Z,88.10
2024-04-18T10:18:46.984Z,87.79
2024-04-18T10:19:46.135Z,87.68
2024-04-18T10:20:46.098Z,87.17
2024-04-18T10:22:47.940Z,86.24
2024-04-18T10:23:46.123Z,86.69
2024-04-18T10:24:46.067Z,86.96
2024-04-18T10:25:45.997Z,86.55
2024-04-18T10:26:46.056Z,86.55
2024-04-18T10:27:46.035Z,87.17
2024-04-18T10:28:45.991Z,87.58
2024-04-18T10:29:46.013Z,86.96
2024-04-18T10:30:45.946Z,86.92
2024-04-18T10:31:46.002Z,86.71
2024-04-18T10:32:46.701Z,86.51
2024-04-18T10:33:46.018Z,87.29
2024-04-18T10:34:45.887Z,88.53
2024-04-18T10:35:45.910Z,86.78
2024-04-18T10:36:45.878Z,86.26
2024-04-18T10:37:45.839Z,87.19
2024-04-18T10:38:45.827Z,86.26
2024-04-18T10:39:45.882Z,86.05
2024-04-18T10:40:45.803Z,86.78
2024-04-18T10:41:45.837Z,87.60
2024-04-18T10:42:45.808Z,87.40
2024-04-18T10:43:45.762Z,87.71
2024-04-18T10:44:45.789Z,87.19
2024-04-18T10:45:45.770Z,87.81
2024-04-18T10:46:45.776Z,86.36
2024-04-18T10:47:45.789Z,85.54
2024-04-18T10:48:45.862Z,85.99
2024-04-18T10:49:45.735Z,86.30
2024-04-18T10:50:45.666Z,86.30
2024-04-18T10:51:45.643Z,85.17
2024-04-18T10:52:45.636Z,85.58
2024-04-18T10:53:45.633Z,86.51
2024-04-18T10:54:45.759Z,86.10
2024-04-18T10:55:45.615Z,86.61
2024-04-18T10:56:45.600Z,87.02
2024-04-18T10:57:45.614Z,87.65
2024-04-18T10:58:45.569Z,87.85
2024-04-18T10:59:45.549Z,87.40
2024-04-18T11:00:45.690Z,88.12
2024-04-18T11:01:45.618Z,89.01
2024-04-18T11:02:45.516Z,88.90
2024-04-18T11:03:45.576Z,87.52
2024-04-18T11:04:45.493Z,86.29
2024-04-18T11:05:45.486Z,85.57
2024-04-18T11:06:45.522Z,85.94
2024-04-18T11:07:45.432Z,86.55
2024-04-18T11:08:45.420Z,86.10
2024-04-18T11:09:45.604Z,84.62
2024-04-18T11:10:45.431Z,85.34
2024-04-18T11:11:45.402Z,85.41
2024-04-18T11:12:45.418Z,84.44
2024-04-18T11:13:45.377Z,86.15
2024-04-18T11:14:45.345Z,85.63
2024-04-18T11:15:45.369Z,85.28
2024-04-18T11:16:45.330Z,84.22
2024-04-18T11:17:45.350Z,82.27
2024-04-18T11:18:45.820Z,82.27
2024-04-18T11:19:45.294Z,81.34
2024-04-18T11:20:45.273Z,81.10
2024-04-18T11:21:45.366Z,81.51
2024-04-18T11:22:53.273Z,80.07
2024-04-18T11:23:50.006Z,80.28
2024-04-18T11:24:45.333Z,78.94
2024-04-18T11:25:45.198Z,78.02
2024-04-18T11:26:45.194Z,77.88
2024-04-18T11:27:45.358Z,77.88
2024-04-18T11:28:45.152Z,77.30
2024-04-18T11:29:45.152Z,77.20
2024-04-18T11:30:45.159Z,75.87
2024-04-18T11:31:45.124Z,77.13
2024-04-18T11:32:45.126Z,75.49
2024-04-18T11:33:45.123Z,73.98
2024-04-18T11:34:45.441Z,75.63
2024-04-18T11:35:45.076Z,75.76
2024-04-18T11:36:45.089Z,76.59
2024-04-18T11:37:45.026Z,76.07
2024-04-18T11:38:45.023Z,77.00
2024-04-18T11:39:45.055Z,77.31
2024-04-18T11:40:45.004Z,76.83
2024-04-18T11:41:45.016Z,77.20
2024-04-18T11:42:44.996Z,76.73
2024-04-18T11:43:44.992Z,76.11
2024-04-18T11:44:44.935Z,74.57
2024-04-18T11:45:44.955Z,75.22
2024-04-18T11:46:44.963Z,74.91
2024-04-18T11:47:45.010Z,74.33
2024-04-18T11:48:45.034Z,75.18
2024-04-18T11:49:44.863Z,75.63
2024-04-18T11:50:44.846Z,77.48
2024-04-18T11:51:44.843Z,76.65
2024-04-18T11:52:44.875Z,75.25
2024-04-18T11:53:44.807Z,75.28
2024-04-18T11:54:44.784Z,73.27
2024-04-18T11:55:44.779Z,72.00
2024-04-18T11:56:44.887Z,68.25
2024-04-18T11:57:44.763Z,67.40
2024-04-18T11:58:44.742Z,66.11
2024-04-18T11:59:44.717Z,64.17
2024-04-18T12:00:44.781Z,65.30
2024-04-18T12:01:44.731Z,65.15
2024-04-18T12:02:44.786Z,65.83
2024-04-18T12:03:44.855Z,66.67
2024-04-18T12:04:44.696Z,66.81
2024-04-18T12:05:44.642Z,69.51
2024-04-18T12:06:44.688Z,70.50
2024-04-18T12:07:44.610Z,68.66
2024-04-18T12:08:46.078Z,67.43
2024-04-18T12:09:44.636Z,66.51
2024-04-18T12:10:44.593Z,67.97
2024-04-18T12:11:44.595Z,68.73
2024-04-18T12:12:44.569Z,69.57
2024-04-18T12:13:44.566Z,70.64
2024-04-18T12:14:44.523Z,70.08
2024-04-18T12:15:44.574Z,71.04
2024-04-18T12:16:44.497Z,71.89
2024-04-18T12:17:44.526Z,72.96
2024-04-18T12:18:44.497Z,74.53
2024-04-18T12:19:45.062Z,75.18
2024-04-18T12:20:44.454Z,76.35
2024-04-18T12:21:44.415Z,76.90
2024-04-18T12:22:44.445Z,77.55
2024-04-18T12:23:44.527Z,78.28
2024-04-18T12:24:44.391Z,78.93
2024-04-18T12:25:44.394Z,78.72
2024-04-18T12:26:44.373Z,78.62
2024-04-18T12:27:44.387Z,79.65
2024-04-18T12:28:44.332Z,80.72
2024-04-18T12:29:44.323Z,81.03
2024-04-18T12:30:44.364Z,78.55
2024-04-18T12:31:44.297Z,79.27
2024-04-18T12:32:44.436Z,80.41
2024-04-18T12:33:44.729Z,79.72
2024-04-18T12:34:44.355Z,80.55
2024-04-18T12:35:44.247Z,80.04
2024-04-18T12:36:44.275Z,79.31
2024-04-18T12:37:44.235Z,80.07
2024-04-18T12:38:44.236Z,79.97
2024-04-18T12:39:44.182Z,80.52
2024-04-18T12:40:44.167Z,80.93
2024-04-18T12:41:44.164Z,80.56
2024-04-18T12:42:44.194Z,81.38
2024-04-18T12:43:44.183Z,81.52
2024-04-18T12:44:44.803Z,81.32
2024-04-18T12:45:44.132Z,81.87
2024-04-18T12:46:44.105Z,82.29
2024-04-18T12:47:44.324Z,81.98
2024-04-18T12:48:44.277Z,83.22
2024-04-18T12:49:44.112Z,83.01
2024-04-18T12:50:44.038Z,83.01
2024-04-18T12:51:44.184Z,83.05
2024-04-18T12:52:44.108Z,83.25
2024-04-18T12:53:43.978Z,83.05
2024-04-18T12:54:44.221Z,82.74
2024-04-18T12:55:43.956Z,82.84